createdAt,value
2019-05-22T00:05:15.858Z,45.80
2019-05-22T00:11:20.526Z,44.35
2019-05-22T00:17:26.092Z,44.03
2019-05-22T00:23:30.146Z,43.75
2019-05-22T00:29:33.334Z,41.58
2019-05-22T00:35:37.138Z,39.80
2019-05-22T00:41:39.448Z,38.95
2019-05-22T00:47:41.589Z,37.60
2019-05-22T00:54:00.216Z,39.85
2019-05-22T01:00:04.681Z,37.25
2019-05-22T01:06:10.521Z,37.88
2019-05-22T01:12:18.965Z,44.30
2019-05-22T01:18:26.165Z,41.50
2019-05-22T01:24:28.497Z,42.70
2019-05-22T01:30:34.595Z,41.02
2019-05-22T01:36:39.071Z,38.53
2019-05-22T01:42:41.994Z,37.67
2019-05-22T01:48:44.597Z,39.73
2019-05-22T01:54:46.164Z,36.00
2019-05-22T02:00:51.994Z,35.70
2019-05-22T02:06:54.914Z,39.10
2019-05-22T02:12:59.366Z,40.70
2019-05-22T02:19:02.669Z,36.28
2019-05-22T02:25:05.840Z,30.97
2019-05-22T02:31:08.622Z,41.45
2019-05-22T02:37:11.146Z,38.60
2019-05-22T02:43:14.723Z,34.78
2019-05-22T02:49:16.877Z,33.50
2019-05-22T02:55:18.545Z,36.05
2019-05-22T03:01:20.138Z,36.30
2019-05-22T03:07:23.250Z,30.97
2019-05-22T03:13:54.309Z,33.15
2019-05-22T03:19:57.279Z,38.35
2019-05-22T03:26:00.038Z,43.10
2019-05-22T03:32:02.863Z,45.12
2019-05-22T03:38:05.694Z,42.88
2019-05-22T03:44:07.413Z,45.75
2019-05-22T03:50:11.298Z,46.10
2019-05-22T03:56:14.559Z,49.20
2019-05-22T04:02:16.760Z,54.83
2019-05-22T04:08:20.706Z,46.00
2019-05-22T04:14:26.054Z,47.78
2019-05-22T04:20:33.161Z,46.83
2019-05-22T04:26:37.566Z,50.60
2019-05-22T04:32:43.547Z,41.63
2019-05-22T04:38:45.025Z,47.67
2019-05-22T04:45:08.597Z,42.85
2019-05-22T04:51:22.007Z,39.60
2019-05-22T04:57:24.517Z,49.15
2019-05-22T05:03:28.735Z,47.50
2019-05-22T05:09:31.044Z,49.30
2019-05-22T05:15:32.727Z,45.03
2019-05-22T05:21:36.452Z,48.92
2019-05-22T05:27:38.468Z,43.83
2019-05-22T05:33:49.898Z,45.78
2019-05-22T05:40:07.342Z,43.92
2019-05-22T05:46:11.842Z,41.10
2019-05-22T05:52:15.400Z,41.10
2019-05-22T05:58:22.983Z,42.05
2019-05-22T06:04:34.855Z,48.57
2019-05-22T06:10:35.662Z,49.88
2019-05-22T06:16:56.686Z,49.18
2019-05-22T06:23:21.836Z,53.75
2019-05-22T06:29:28.014Z,54.73
2019-05-22T06:35:33.299Z,49.33
2019-05-22T06:41:37.257Z,57.93
2019-05-22T06:47:38.863Z,52.08
2019-05-22T06:53:40.521Z,51.28
2019-05-22T06:59:44.207Z,49.67
2019-05-22T07:05:46.002Z,59.20
2019-05-22T07:11:48.255Z,62.05
2019-05-22T07:17:51.985Z,53.70
2019-05-22T07:23:53.722Z,55.50
2019-05-22T07:29:55.695Z,52.75
2019-05-22T07:36:09.566Z,51.23
2019-05-22T07:42:02.452Z,43.13
2019-05-22T07:48:05.143Z,44.23
2019-05-22T07:54:06.757Z,41.08
2019-05-22T08:00:08.838Z,39.55
2019-05-22T08:06:11.220Z,37.33
2019-05-22T08:12:13.549Z,44.88
2019-05-22T08:18:16.142Z,40.98
2019-05-22T08:24:17.889Z,32.88
2019-05-22T08:30:19.568Z,29.77
2019-05-22T08:36:21.244Z,31.70
2019-05-22T08:42:23.400Z,33.73
2019-05-22T08:48:25.445Z,28.62
2019-05-22T08:54:30.062Z,31.37
2019-05-22T09:00:32.133Z,26.68
2019-05-22T09:06:34.121Z,22.55
2019-05-22T09:12:35.987Z,26.35
2019-05-22T09:18:39.054Z,23.25
2019-05-22T09:24:40.875Z,20.43
2019-05-22T09:30:42.686Z,21.23
2019-05-22T09:36:44.282Z,16.97
2019-05-22T09:42:46.447Z,14.30
2019-05-22T09:48:48.422Z,15.93
2019-05-22T09:54:50.035Z,12.25
2019-05-22T10:00:57.554Z,10.23
2019-05-22T10:07:11.371Z,10.95
2019-05-22T17:11:12.511Z,6.40
2019-05-22T17:17:18.651Z,5.35
2019-05-22T17:23:21.865Z,6.33
2019-05-22T17:29:24.290Z,6.60
2019-05-22T17:35:26.282Z,6.55
2019-05-22T17:41:30.913Z,7.70
2019-05-22T17:47:32.699Z,7.42
2019-05-22T17:53:36.507Z,8.18
2019-05-22T17:59:39.429Z,8.33
2019-05-22T18:05:41.352Z,6.55
2019-05-22T18:11:42.890Z,4.75
2019-05-22T18:17:44.851Z,5.12
2019-05-22T18:23:46.848Z,5.03
2019-05-22T18:29:48.402Z,5.55
2019-05-22T18:35:51.414Z,6.53
2019-05-22T18:41:53.315Z,4.40
2019-05-22T18:47:59.110Z,6.78
2019-05-22T18:54:00.735Z,5.97
2019-05-22T19:00:06.116Z,7.20
2019-05-22T19:06:09.262Z,6.00
2019-05-22T19:12:11.461Z,10.48
2019-05-22T19:18:41.376Z,6.05
2019-05-22T19:31:06.363Z,6.50
2019-05-22T19:37:08.187Z,7.55
2019-05-22T19:43:11.359Z,8.28
2019-05-22T19:49:14.155Z,8.33
2019-05-22T19:55:18.536Z,6.55
2019-05-22T20:01:21.983Z,6.03
2019-05-22T20:07:23.565Z,5.60
2019-05-22T20:13:25.843Z,6.37
2019-05-22T20:19:27.437Z,9.35
2019-05-22T20:25:29.026Z,6.35
2019-05-22T20:31:30.715Z,6.40
2019-05-22T20:37:42.191Z,7.60
2019-05-22T20:43:44.086Z,7.80
2019-05-22T20:49:47.342Z,7.92
2019-05-22T20:55:50.180Z,7.30
2019-05-22T21:01:52.137Z,8.55
2019-05-22T21:07:57.819Z,8.60
2019-05-22T21:14:00.608Z,8.03
2019-05-22T21:20:06.773Z,8.08
2019-05-22T21:26:10.642Z,7.75
2019-05-22T21:32:13.344Z,7.12
2019-05-22T21:38:15.821Z,10.78
2019-05-22T21:44:17.775Z,9.80
2019-05-22T21:50:20.259Z,8.05
2019-05-22T21:56:21.803Z,7.42
2019-05-22T22:02:31.931Z,8.45
2019-05-22T22:08:34.882Z,9.98
2019-05-22T22:14:36.909Z,6.85
2019-05-22T22:20:38.661Z,9.25
2019-05-22T22:26:41.042Z,8.83
2019-05-22T22:32:43.779Z,11.83
2019-05-22T22:38:45.552Z,9.58
2019-05-22T22:44:51.226Z,10.28
2019-05-22T22:50:54.614Z,9.75
2019-05-22T22:56:56.243Z,10.75
2019-05-22T23:02:57.971Z,8.68
2019-05-22T23:09:00.176Z,8.53
2019-05-22T23:15:02.199Z,9.45
2019-05-22T23:21:04.267Z,13.95
2019-05-22T23:27:06.522Z,8.95
2019-05-22T23:33:09.724Z,11.50
2019-05-22T23:39:14.249Z,10.23
2019-05-22T23:45:18.655Z,12.90
2019-05-22T23:51:35.243Z,16.82
2019-05-22T23:57:51.778Z,13.08
